Sunday, November 23, 2014
17:15 UTC
  |  Log In   |  Register Free
Airport Search:

Owatonna Degner Regional Airport
(KOWA)

Owatonna Degner Regional Airport Diagram
No Airport Diagram Available

FAA data valid effective November 13, 2014 - January 08, 2015 (unless otherwise noted).

 
 
 
 
 
 
 
 
 
 
 
 
 
 

Current Aviation Weather for Owatonna Degner Regional Airport (KOWA)

The most recent METAR observation for KOWA was updated at: 1615
METAR Summary (Translated METAR)
KOWA
231555Z AUTO 18008KT 2SM BR OVC003 11/09 A2945 RMK AO2
KFBL
231654Z AUTO 19004KT 1/2SM FG OVC003 10/09 A2944 RMK AO2
(12.5 nm NW from KOWA)
KACQ
231654Z AUTO 19005KT 3/4SM -RA OVC003 09/07 A2944 RMK AO2
(13 nm SW from KOWA)
TAF
No TAF information found within 50 nm of KOWA
  Airport Weather Conditions for KOWA

 Current Weather at OWA
52° F
Light Drizzle
South winds at 6.9 mph
OWA NOAA Radar

Pressure: 29.44 in
Humidity: 88%
Wind: South at 6.9 MPH (6 KT)
Dew Point: 48.2°F
Visibility: 1.50 mi


Airport Weather Forecast for KOWA

Translated METAR and TAF for KOWA
Translated METAR for KOWA (1710 UTC 23 November 2014)
found at http://aviationweather.gov/adds/metars/
 
METAR text: KOWA 231655Z AUTO 17006KT 1 1/2SM -DZ OVC003 11/09 A2944 RMK AO2
Conditions at: KOWA (OWATONNA , MN, US) observed 1655 UTC 23 November 2014
Temperature: 11.0°C (52°F)
Dewpoint: 9.0°C (48°F) [RH = 87%]
Pressure (altimeter): 29.44 inches Hg (997.0 mb)
Winds: from the S (170 degrees) at 7 MPH (6 knots; 3.1 m/s)
Visibility: 1.50 miles (2.41 km)
Ceiling: 300 feet AGL
Clouds: overcast cloud deck at 300 feet AGL
Weather: -DZ  (light drizzle)
Translated TAF for KOWA

There is no translated TAF available for this airport

Find All Airport Services Find A Hotel Find A Rental Car Find A Golf Course Find A Restaurant $100 Hamburger



FBO's on the Field
FBO Company Facility Photos Services Transportation Aviation Fuel Prices: Prices include tax
Catering Weather Repair Courtesy Rental Type 100LL JetA JetA+ MOGAS 8087
 
Owatonna Degner Regional Airport

This FBO has not yet been rated
FS:Avfuel
Last Updated: Oct-30
Login to update fuel prices
SS:
Contact Owatonna Degner Regional AirportMore FBO Information
 
Add another FBO Facility Photos Catering Weather Repair Courtesy Rental Type 100LL JetA JetA+ MOGAS 8087
Services Transportation Aviation Fuel Prices: Prices include tax


model-print
model-print
model-print
model-print